Time;durP1;ratioP1;P1;durP2;ratioP2;P2;SDS_P1;SDS_P2;PMS_P1;PMS_P2;Temp;Humidity;BMP_temperature;BMP_pressure;BME280_temperature;BME280_humidity;BME280_pressure;Samples;Min_cycle;Max_cycle;Signal;HPM_P1;HPM_P2
2022/07/28 00:00:37;;;;;;;4.10;2.33;;;15.60;99.90;;;;;;5040664;28;20040;-76
2022/07/28 00:03:03;;;;;;;4.68;2.20;;;15.60;99.90;;;;;;5026133;28;20037;-76
2022/07/28 00:05:28;;;;;;;2.72;2.25;;;15.50;99.90;;;;;;5039652;28;20037;-76
2022/07/28 00:07:55;;;;;;;2.63;2.30;;;15.50;99.90;;;;;;5033642;28;20053;-76
2022/07/28 00:10:20;;;;;;;2.92;2.15;;;15.40;99.90;;;;;;5030107;28;20072;-76
2022/07/28 00:12:46;;;;;;;3.88;2.22;;;15.40;99.90;;;;;;5028766;28;20075;-76
2022/07/28 00:15:12;;;;;;;2.40;2.20;;;15.40;99.90;;;;;;5039139;28;20128;-76
2022/07/28 00:17:38;;;;;;;2.53;2.10;;;15.30;99.90;;;;;;5031544;28;20080;-76
2022/07/28 00:20:05;;;;;;;2.90;2.10;;;15.30;99.90;;;;;;5034893;28;20077;-76
2022/07/28 00:22:30;;;;;;;3.15;2.28;;;15.30;99.90;;;;;;5042345;28;20045;-76
2022/07/28 00:24:56;;;;;;;2.42;2.22;;;15.30;99.90;;;;;;5039522;28;20048;-76
2022/07/28 00:27:23;;;;;;;5.32;2.25;;;15.20;99.90;;;;;;5045974;28;20036;-76
2022/07/28 00:29:49;;;;;;;2.75;2.10;;;15.20;99.90;;;;;;5033385;28;20132;-76
2022/07/28 00:32:15;;;;;;;4.20;2.33;;;15.20;99.90;;;;;;5033857;28;20122;-76
2022/07/28 00:34:41;;;;;;;2.42;2.22;;;15.20;99.90;;;;;;5033190;28;20052;-76
2022/07/28 00:37:07;;;;;;;2.40;2.13;;;15.10;99.90;;;;;;5036754;28;20040;-76
2022/07/28 00:39:32;;;;;;;5.28;2.60;;;15.10;99.90;;;;;;5033759;28;20041;-76
2022/07/28 00:41:58;;;;;;;2.80;2.30;;;15.10;99.90;;;;;;5034398;28;20409;-76
2022/07/28 00:44:24;;;;;;;2.50;2.22;;;15.10;99.90;;;;;;5045006;28;20105;-76
2022/07/28 00:46:49;;;;;;;3.63;2.35;;;15.00;99.90;;;;;;5042329;28;20040;-75
2022/07/28 00:49:15;;;;;;;3.03;2.20;;;15.10;99.90;;;;;;5039068;28;20485;-75
2022/07/28 00:51:41;;;;;;;2.50;2.30;;;15.00;99.90;;;;;;5037809;28;20123;-76
2022/07/28 00:54:07;;;;;;;3.25;2.40;;;15.00;99.90;;;;;;5034930;28;20132;-76
2022/07/28 00:56:33;;;;;;;2.47;2.28;;;14.90;99.90;;;;;;5038879;28;20064;-76
2022/07/28 00:58:59;;;;;;;3.67;2.20;;;14.90;99.90;;;;;;5037311;28;20103;-76
2022/07/28 01:01:25;;;;;;;5.30;2.40;;;14.90;99.90;;;;;;5030866;28;20472;-76
2022/07/28 01:03:55;;;;;;;3.38;2.20;;;14.90;99.90;;;;;;5033604;28;20076;-76
2022/07/28 01:06:28;;;;;;;2.40;2.20;;;14.70;99.90;;;;;;5032396;28;20470;-76
2022/07/28 01:09:12;;;;;;;4.13;2.20;;;14.80;99.90;;;;;;5035565;28;20404;-76
2022/07/28 01:11:44;;;;;;;2.80;2.15;;;14.80;99.90;;;;;;5028564;28;20116;-76
2022/07/28 01:14:20;;;;;;;4.20;2.30;;;14.70;99.90;;;;;;5029625;28;20046;-76
2022/07/28 01:16:57;;;;;;;2.30;2.10;;;14.70;99.90;;;;;;5033735;28;20037;-76
2022/07/28 01:19:42;;;;;;;3.20;2.10;;;14.70;99.90;;;;;;5030686;28;20409;-76
2022/07/28 01:22:11;;;;;;;3.63;2.50;;;14.70;99.90;;;;;;5033685;28;20396;-76
2022/07/28 01:25:18;;;;;;;2.78;2.50;;;14.60;99.90;;;;;;5035097;28;20041;-76
2022/07/28 01:28:05;;;;;;;3.53;2.17;;;14.60;99.90;;;;;;5025878;28;20096;-75
2022/07/28 01:30:38;;;;;;;2.60;2.40;;;14.60;99.90;;;;;;5028756;28;20049;-75
2022/07/28 01:33:11;;;;;;;;;;;14.50;99.90;;;;;;5034489;28;20444;-75
2022/07/28 01:35:53;;;;;;;3.70;2.60;;;14.50;99.90;;;;;;5043457;28;19970;-75
2022/07/28 01:38:21;;;;;;;3.17;2.42;;;14.50;99.90;;;;;;5030836;28;20041;-76
2022/07/28 01:40:50;;;;;;;5.07;2.55;;;14.40;99.90;;;;;;5027769;28;20044;-75
2022/07/28 01:43:20;;;;;;;2.83;2.55;;;14.40;99.90;;;;;;5034785;28;20061;-76
2022/07/28 01:45:46;;;;;;;3.28;2.80;;;14.40;99.90;;;;;;5034545;28;20060;-75
2022/07/28 01:48:14;;;;;;;4.97;2.83;;;14.40;99.90;;;;;;5035607;28;20501;-76
2022/07/28 01:50:41;;;;;;;3.10;2.65;;;14.40;99.90;;;;;;5031223;28;20084;-77
2022/07/28 01:53:10;;;;;;;3.55;2.80;;;14.40;99.90;;;;;;5040023;28;20404;-76
2022/07/28 01:55:38;;;;;;;3.78;2.65;;;14.30;99.90;;;;;;5034113;28;20485;-76
2022/07/28 01:58:05;;;;;;;3.28;2.78;;;14.30;99.90;;;;;;5030022;28;20770;-76
2022/07/28 02:00:32;;;;;;;3.35;2.80;;;14.30;99.90;;;;;;5031549;28;20766;-76
2022/07/28 02:03:02;;;;;;;2.60;2.40;;;14.30;99.90;;;;;;5030871;28;20045;-76
2022/07/28 02:05:29;;;;;;;3.92;2.88;;;14.30;99.90;;;;;;5026765;28;20084;-76
2022/07/28 02:07:56;;;;;;;3.95;2.55;;;14.20;99.90;;;;;;5031671;28;20076;-76
2022/07/28 02:10:24;;;;;;;3.60;2.60;;;14.20;99.90;;;;;;5033562;28;20037;-77
2022/07/28 02:12:51;;;;;;;2.78;2.58;;;14.10;99.90;;;;;;5038947;28;20068;-76
2022/07/28 02:15:19;;;;;;;3.47;2.83;;;14.00;99.90;;;;;;5039314;28;20046;-77
2022/07/28 02:17:47;;;;;;;5.60;2.80;;;14.10;99.90;;;;;;5038051;28;20045;-76
2022/07/28 02:20:15;;;;;;;2.95;2.72;;;14.00;99.90;;;;;;5036392;28;20052;-78
2022/07/28 02:22:43;;;;;;;3.05;2.75;;;14.10;99.90;;;;;;5036799;28;20060;-78
2022/07/28 02:25:09;;;;;;;4.75;2.80;;;14.10;99.90;;;;;;5032281;28;20037;-78
2022/07/28 02:27:42;;;;;;;5.55;2.92;;;14.10;99.90;;;;;;5035540;28;20045;-78
2022/07/28 02:30:14;;;;;;;;;;;14.00;99.90;;;;;;5043971;28;20464;-78
2022/07/28 02:32:52;;;;;;;3.58;2.50;;;14.00;99.90;;;;;;5036661;28;20441;-77
2022/07/28 02:35:44;;;;;;;2.90;2.65;;;14.00;99.90;;;;;;5025934;28;20049;-77
2022/07/28 02:38:26;;;;;;;2.72;2.50;;;14.00;99.90;;;;;;5039777;28;20049;-78
2022/07/28 02:40:56;;;;;;;2.97;2.72;;;14.00;99.90;;;;;;5032026;28;20608;-78
2022/07/28 02:43:26;;;;;;;3.05;2.80;;;14.00;99.90;;;;;;5029770;28;20605;-78
2022/07/28 02:45:54;;;;;;;4.13;3.10;;;13.90;99.90;;;;;;5030427;28;20060;-77
2022/07/28 02:48:26;;;;;;;3.65;3.28;;;13.90;99.90;;;;;;5031865;28;20520;-77
2022/07/28 02:50:55;;;;;;;4.95;3.05;;;13.90;99.90;;;;;;5039691;28;20454;-77
2022/07/28 02:53:22;;;;;;;6.32;3.30;;;14.00;99.90;;;;;;5034402;28;20476;-75
2022/07/28 02:55:49;;;;;;;3.40;3.00;;;13.80;99.90;;;;;;5036827;28;20037;-74
2022/07/28 02:58:20;;;;;;;4.25;2.97;;;13.80;99.90;;;;;;5032076;28;20036;-75
2022/07/28 03:00:48;;;;;;;3.58;3.05;;;13.80;99.90;;;;;;5027426;28;20060;-75
2022/07/28 03:03:16;;;;;;;3.58;3.08;;;13.80;99.90;;;;;;5033004;28;20051;-75
2022/07/28 03:05:42;;;;;;;3.03;2.72;;;13.80;99.90;;;;;;5032244;28;19928;-75
2022/07/28 03:08:08;;;;;;;4.00;3.20;;;13.70;99.90;;;;;;5032629;28;20045;-75
2022/07/28 03:10:33;;;;;;;3.42;3.08;;;13.70;99.90;;;;;;5038699;28;20056;-75
2022/07/28 03:12:59;;;;;;;3.38;2.90;;;13.70;99.90;;;;;;5034922;28;20048;-75
2022/07/28 03:15:25;;;;;;;3.70;3.13;;;13.70;99.90;;;;;;5035784;28;20033;-75
2022/07/28 03:17:51;;;;;;;3.15;2.83;;;13.70;99.90;;;;;;5045830;28;20046;-75
2022/07/28 03:20:17;;;;;;;3.50;3.20;;;13.70;99.90;;;;;;5034247;28;20056;-75
2022/07/28 03:22:43;;;;;;;4.35;2.97;;;13.70;99.90;;;;;;5034894;28;20037;-75
2022/07/28 03:25:19;;;;;;;3.83;3.25;;;13.70;99.90;;;;;;5034806;28;20116;-75
2022/07/28 03:27:47;;;;;;;3.53;3.13;;;13.70;99.90;;;;;;5032986;28;20096;-75
2022/07/28 03:30:21;;;;;;;3.70;3.08;;;13.70;99.90;;;;;;5042616;28;20048;-75
2022/07/28 03:32:54;;;;;;;4.53;2.97;;;13.70;99.90;;;;;;5034176;28;20124;-75
2022/07/28 03:35:20;;;;;;;5.20;3.38;;;13.70;99.90;;;;;;5037474;28;20041;-76
2022/07/28 03:37:53;;;;;;;4.93;3.13;;;13.60;99.90;;;;;;5042410;28;20045;-75
2022/07/28 03:40:19;;;;;;;3.33;3.03;;;13.60;99.90;;;;;;5034419;28;20049;-75
2022/07/28 03:42:47;;;;;;;4.13;3.25;;;13.60;99.90;;;;;;5039447;28;20115;-76
2022/07/28 03:45:16;;;;;;;3.55;3.17;;;13.50;99.90;;;;;;5046299;28;20049;-75
2022/07/28 03:48:08;;;;;;;3.63;2.92;;;13.50;99.90;;;;;;5028223;28;20394;-75
2022/07/28 03:50:34;;;;;;;3.67;3.10;;;13.50;99.90;;;;;;5028818;28;20148;-75
2022/07/28 03:53:01;;;;;;;5.50;3.00;;;13.50;99.90;;;;;;5034335;28;20119;-75
2022/07/28 03:55:28;;;;;;;3.28;2.97;;;13.60;99.90;;;;;;5031564;28;20080;-75
2022/07/28 03:57:55;;;;;;;3.72;2.75;;;13.40;99.90;;;;;;5036915;28;20049;-76
2022/07/28 04:00:22;;;;;;;3.58;2.53;;;13.40;99.90;;;;;;5030721;28;20047;-75
2022/07/28 04:02:47;;;;;;;4.35;2.70;;;13.40;99.90;;;;;;5028816;28;20071;-75
2022/07/28 04:05:15;;;;;;;3.33;2.50;;;13.40;99.90;;;;;;5037213;28;20068;-76
2022/07/28 04:07:41;;;;;;;3.28;2.45;;;13.40;99.90;;;;;;5033295;28;20034;-75
2022/07/28 04:10:11;;;;;;;5.65;2.88;;;13.40;99.90;;;;;;5038940;28;20072;-75
2022/07/28 04:12:53;;;;;;;4.57;2.72;;;13.30;99.90;;;;;;5032115;28;20051;-75
2022/07/28 04:15:20;;;;;;;4.10;2.80;;;13.40;99.90;;;;;;5033889;28;20061;-75
2022/07/28 04:17:47;;;;;;;3.22;2.67;;;13.30;99.90;;;;;;5033129;28;20079;-76
2022/07/28 04:20:15;;;;;;;2.97;2.65;;;13.40;99.90;;;;;;5040172;28;20095;-77
2022/07/28 04:22:40;;;;;;;3.90;3.03;;;13.40;99.90;;;;;;5035276;28;20087;-77
2022/07/28 04:25:06;;;;;;;4.50;3.17;;;13.40;99.90;;;;;;5037754;28;20049;-76
2022/07/28 04:27:35;;;;;;;3.55;3.22;;;13.40;99.90;;;;;;5033898;28;20033;-76
2022/07/28 04:30:05;;;;;;;4.30;3.30;;;13.40;99.90;;;;;;5037392;28;20047;-76
2022/07/28 04:32:31;;;;;;;3.55;3.15;;;13.40;99.90;;;;;;5029775;28;20041;-77
2022/07/28 04:34:56;;;;;;;6.18;3.20;;;13.40;99.90;;;;;;5036656;28;20106;-77
2022/07/28 04:37:22;;;;;;;4.03;2.67;;;13.50;99.90;;;;;;5033668;28;20481;-77
2022/07/28 04:39:49;;;;;;;3.72;2.97;;;13.50;99.90;;;;;;5045637;28;20037;-76
2022/07/28 04:42:15;;;;;;;3.17;2.80;;;13.40;99.90;;;;;;5040741;28;20120;-76
2022/07/28 04:44:41;;;;;;;4.47;3.00;;;13.40;99.90;;;;;;5041029;28;20053;-76
2022/07/28 04:47:07;;;;;;;3.03;2.78;;;13.50;99.90;;;;;;5032932;28;20045;-76
2022/07/28 04:49:33;;;;;;;3.42;2.85;;;13.60;99.90;;;;;;5037800;28;20892;-76
2022/07/28 04:51:59;;;;;;;3.38;2.88;;;13.60;99.90;;;;;;5033392;28;20128;-76
2022/07/28 04:54:25;;;;;;;3.20;2.90;;;13.50;99.90;;;;;;5033003;28;20103;-77
2022/07/28 04:56:51;;;;;;;4.88;3.00;;;13.70;99.90;;;;;;5040013;28;20389;-76
2022/07/28 04:59:17;;;;;;;4.13;2.50;;;13.80;99.90;;;;;;5046772;28;20450;-78
2022/07/28 05:01:43;;;;;;;3.67;2.70;;;;;;;;;;5032552;28;20053;-75
2022/07/28 05:04:09;;;;;;;3.22;2.60;;;13.80;99.90;;;;;;5036514;28;20164;-76
2022/07/28 05:06:35;;;;;;;6.05;2.50;;;13.90;99.90;;;;;;5036611;28;20184;-76
2022/07/28 05:09:01;;;;;;;3.30;2.03;;;13.90;99.90;;;;;;5037797;28;20053;-76
2022/07/28 05:11:27;;;;;;;4.75;2.65;;;14.00;99.90;;;;;;5038960;28;20561;-76
2022/07/28 05:13:53;;;;;;;4.43;2.47;;;14.00;99.90;;;;;;5040902;28;20127;-76
2022/07/28 05:16:19;;;;;;;3.25;2.58;;;14.10;99.90;;;;;;5051117;28;20047;-76
2022/07/28 05:18:44;;;;;;;3.28;2.30;;;14.10;99.90;;;;;;5040387;28;20045;-76
2022/07/28 05:21:10;;;;;;;5.68;2.33;;;14.10;99.90;;;;;;5048438;28;20370;-76
2022/07/28 05:23:36;;;;;;;2.60;2.30;;;14.20;99.90;;;;;;5036981;28;20060;-76
2022/07/28 05:26:03;;;;;;;8.25;2.38;;;14.30;99.90;;;;;;5035470;28;20397;-76
2022/07/28 05:28:29;;;;;;;4.68;2.50;;;;;;;;;;5040716;28;20473;-76
2022/07/28 05:30:55;;;;;;;3.72;2.35;;;;;;;;;;5035959;28;20045;-76
2022/07/28 05:33:21;;;;;;;5.13;2.47;;;;;;;;;;5038574;28;20052;-76
2022/07/28 05:35:52;;;;;;;2.67;2.40;;;;;;;;;;5036476;28;20077;-76
2022/07/28 05:38:18;;;;;;;2.42;1.98;;;;;;;;;;5030369;28;20511;-76
2022/07/28 05:40:44;;;;;;;3.45;2.25;;;;;;;;;;5031859;28;20053;-76
2022/07/28 05:43:10;;;;;;;2.47;2.13;;;;;;;;;;5032435;28;20049;-76
2022/07/28 05:45:36;;;;;;;2.30;2.10;;;;;;;;;;5041908;28;20508;-76
2022/07/28 05:48:02;;;;;;;2.22;1.77;;;;;;;;;;5038831;28;20041;-76
2022/07/28 05:50:28;;;;;;;3.28;2.00;;;;;;;;;;5025074;28;20507;-75
2022/07/28 05:52:54;;;;;;;2.30;1.70;;;;;;;;;;5036500;28;20079;-76
2022/07/28 05:55:20;;;;;;;3.85;1.98;;;;;;;;;;5042537;28;20069;-76
2022/07/28 05:57:46;;;;;;;4.18;1.90;;;;;;;;;;5032676;28;20080;-76
2022/07/28 06:00:14;;;;;;;3.63;1.85;;;;;;;;;;5036746;28;20055;-76
2022/07/28 06:02:41;;;;;;;4.60;2.15;;;;;;;;;;5037260;28;20124;-76
2022/07/28 06:05:07;;;;;;;3.97;1.98;;;;;;;;;;5028034;28;20134;-76
2022/07/28 06:07:33;;;;;;;2.72;2.10;;;;;;;;;;5032014;28;20091;-76
2022/07/28 06:09:59;;;;;;;2.72;1.90;;;;;;;;;;5027770;28;20041;-76
2022/07/28 06:12:25;;;;;;;3.35;2.25;;;;;;;;;;5030966;28;20052;-76
2022/07/28 06:14:51;;;;;;;2.97;1.85;;;;;;;;;;5024941;28;20049;-76
2022/07/28 06:17:17;;;;;;;3.20;1.88;;;;;;;;;;5037167;28;20049;-76
2022/07/28 06:19:43;;;;;;;4.07;1.90;;;;;;;;;;5039603;28;20041;-76
2022/07/28 06:22:09;;;;;;;3.08;1.63;;;;;;;;;;5032771;28;20034;-76
2022/07/28 06:24:35;;;;;;;3.95;1.85;;;;;;;;;;5032592;28;20127;-76
2022/07/28 06:27:02;;;;;;;4.38;1.95;;;;;;;;;;5030143;28;20111;-76
2022/07/28 06:29:28;;;;;;;4.75;2.00;;;;;;;;;;5031860;28;20393;-76
2022/07/28 06:31:54;;;;;;;2.92;1.92;;;;;;;;;;5036813;28;20045;-76
2022/07/28 06:34:20;;;;;;;2.67;1.67;;;;;;;;;;5029384;28;20045;-76
2022/07/28 06:36:46;;;;;;;2.83;2.10;;;;;;;;;;5033760;28;20053;-76
2022/07/28 06:39:12;;;;;;;3.35;2.10;;;;;;;;;;5046183;28;20045;-76
2022/07/28 06:41:42;;;;;;;3.08;2.30;;;;;;;;;;5040355;28;20053;-76
2022/07/28 06:44:08;;;;;;;3.78;1.55;;;;;;;;;;5043760;28;20119;-76
2022/07/28 06:46:34;;;;;;;2.20;1.70;;;;;;;;;;5037203;28;20459;-76
2022/07/28 06:49:00;;;;;;;2.45;1.60;;;;;;;;;;5053527;28;20049;-76
2022/07/28 06:51:26;;;;;;;1.75;1.65;;;;;;;;;;5050170;28;20041;-76
2022/07/28 06:53:54;;;;;;;3.72;1.58;;;;;;;;;;5035861;28;20049;-77
2022/07/28 06:56:20;;;;;;;2.90;1.40;;;;;;;;;;5036131;28;20120;-76
2022/07/28 06:58:46;;;;;;;2.75;1.40;;;;;;;;;;5037860;28;20148;-77
2022/07/28 07:01:13;;;;;;;3.67;1.60;;;;;;;;;;5029726;28;20512;-76
2022/07/28 07:03:41;;;;;;;1.85;1.60;;;;;;;;;;5033588;28;20054;-76
2022/07/28 07:06:07;;;;;;;3.55;1.60;;;;;;;;;;5035071;28;20095;-76
2022/07/28 07:08:33;;;;;;;2.97;1.80;;;;;;;;;;5043055;28;20042;-76
2022/07/28 07:10:59;;;;;;;4.38;1.60;;;;;;;;;;5050291;28;20044;-76
2022/07/28 07:13:25;;;;;;;3.13;1.58;;;;;;;;;;5046678;28;20128;-76
2022/07/28 07:15:51;;;;;;;2.55;1.40;;;;;;;;;;5039279;28;20045;-76
2022/07/28 07:18:17;;;;;;;3.67;1.63;;;;;;;;;;5052411;28;23918;-76
2022/07/28 07:20:43;;;;;;;3.10;1.58;;;;;;;;;;5039274;28;20136;-77
2022/07/28 07:23:09;;;;;;;2.33;1.40;;;;;;;;;;5050652;28;20119;-76
2022/07/28 07:25:35;;;;;;;1.50;1.40;;;;;;;;;;5055425;28;20043;-76
2022/07/28 07:28:01;;;;;;;2.42;2.13;;;;;;;;;;5046068;28;20055;-76
2022/07/28 07:30:27;;;;;;;3.00;1.80;;;;;;;;;;5041705;28;20041;-76
2022/07/28 07:32:54;;;;;;;2.75;1.60;;;;;;;;;;5036572;28;20037;-76
2022/07/28 07:35:20;;;;;;;3.55;1.55;;;;;;;;;;5042363;28;20049;-76
2022/07/28 07:37:46;;;;;;;1.80;1.60;;;;;;;;;;5051008;28;20420;-76
2022/07/28 07:40:12;;;;;;;1.95;1.42;;;;;;;;;;5050943;28;20041;-76
2022/07/28 07:42:38;;;;;;;2.30;1.58;;;;;;;;;;5040312;28;20053;-76
2022/07/28 07:45:04;;;;;;;2.75;1.70;;;;;;;;;;5037056;28;20049;-76
2022/07/28 07:47:30;;;;;;;1.50;1.40;;;;;;;;;;5035897;28;20391;-76
2022/07/28 07:49:56;;;;;;;1.50;1.40;;;;;;;;;;5041389;28;20103;-75
2022/07/28 07:52:22;;;;;;;2.45;1.60;;;;;;;;;;5048325;28;20041;-76
2022/07/28 07:54:48;;;;;;;2.03;1.48;;;;;;;;;;5045093;28;20400;-75
2022/07/28 07:57:14;;;;;;;2.28;1.70;;;;;;;;;;5050651;28;20049;-76
2022/07/28 07:59:40;;;;;;;2.80;1.60;;;;;;;;;;5033640;28;20053;-75
2022/07/28 08:02:06;;;;;;;2.40;1.75;;;;;;;;;;5041259;28;20523;-76
2022/07/28 08:04:32;;;;;;;2.88;1.75;;;;;;;;;;5038019;28;20050;-76
2022/07/28 08:06:58;;;;;;;2.35;1.60;;;;;;;;;;5038479;28;20063;-76
2022/07/28 08:09:24;;;;;;;3.38;1.70;;;;;;;;;;5033817;28;20053;-76
2022/07/28 08:11:50;;;;;;;1.73;1.60;;;;;;;;;;5040273;28;20050;-76
2022/07/28 08:14:16;;;;;;;1.92;1.75;;;;;;;;;;5031724;28;20508;-76
2022/07/28 08:16:42;;;;;;;1.92;1.60;;;;;;;;;;5028986;28;20056;-76
2022/07/28 08:19:08;;;;;;;3.22;1.60;;;;;;;;;;5033942;28;20132;-76
2022/07/28 08:21:34;;;;;;;1.98;1.50;;;;;;;;;;5037223;28;20529;-76
2022/07/28 08:24:00;;;;;;;2.20;1.48;;;;;;;;;;5032293;28;20045;-76
2022/07/28 08:26:28;;;;;;;5.15;1.70;;;;;;;;;;5054016;28;20119;-76
2022/07/28 08:28:54;;;;;;;3.70;1.40;;;;;;;;;;5044922;28;20064;-76
2022/07/28 08:31:20;;;;;;;1.75;1.50;;;;;;;;;;5036907;28;20041;-76
2022/07/28 08:33:49;;;;;;;1.70;1.60;;;;;;;;;;5041931;28;20107;-77
2022/07/28 08:36:15;;;;;;;1.77;1.50;;;;;;;;;;5045648;28;20065;-76
2022/07/28 08:38:42;;;;;;;3.95;1.55;;;;;;;;;;5034820;28;20044;-76
2022/07/28 08:41:12;;;;;;;2.10;1.48;;;;;;;;;;5032065;28;20056;-76
2022/07/28 08:43:39;;;;;;;1.55;1.10;;;;;;;;;;5039382;28;20157;-76
2022/07/28 08:46:05;;;;;;;4.32;1.85;;;;;;;;;;5041244;28;20128;-76
2022/07/28 08:48:35;;;;;;;2.38;1.33;;;;;;;;;;5036388;28;20090;-76
2022/07/28 08:51:11;;;;;;;2.38;1.30;;;;;;;;;;5045367;28;20493;-76
2022/07/28 08:53:38;;;;;;;2.80;1.27;;;;;;;;;;5035560;28;20131;-76
2022/07/28 08:56:05;;;;;;;3.92;1.40;;;;;;;;;;5033257;28;20544;-77
2022/07/28 08:58:32;;;;;;;1.98;1.33;;;;;;;;;;5037787;28;20056;-76
2022/07/28 09:00:59;;;;;;;2.72;1.30;;;;;;;;;;5034786;28;20049;-76
2022/07/28 09:03:26;;;;;;;1.85;1.48;;;;;;;;;;5049742;28;20055;-76
2022/07/28 09:05:53;;;;;;;2.63;1.50;;;;;;;;;;5037410;28;20053;-77
2022/07/28 09:08:19;;;;;;;2.40;1.40;;;;;;;;;;5045475;28;20054;-76
2022/07/28 09:10:46;;;;;;;2.20;1.40;;;;;;;;;;5044770;28;20388;-76
2022/07/28 09:13:12;;;;;;;1.40;1.23;;;;;;;;;;5039129;28;20439;-77
2022/07/28 09:15:38;;;;;;;1.30;1.20;;;;;;;;;;5031564;28;20033;-77
2022/07/28 09:18:04;;;;;;;2.58;1.38;;;;;;;;;;5031325;28;20048;-76
2022/07/28 09:20:30;;;;;;;2.78;1.45;;;;;;;;;;5034301;28;20059;-77
2022/07/28 09:22:58;;;;;;;3.35;1.63;;;;;;;;;;5045099;28;20393;-77
2022/07/28 09:25:24;;;;;;;1.58;1.48;;;;;;;;;;5032535;28;20057;-77
2022/07/28 09:27:50;;;;;;;1.38;1.27;;;;;;;;;;5039096;28;20045;-77
2022/07/28 09:30:19;;;;;;;3.00;1.30;;;;;;;;;;5033284;28;20555;-76
2022/07/28 09:32:45;;;;;;;3.17;1.40;;;;;;;;;;5051691;28;20485;-77
2022/07/28 09:35:19;;;;;;;1.52;1.10;;;;;;;;;;5033586;28;20050;-77
2022/07/28 09:37:45;;;;;;;;;;;;;;;;;;5030915;28;20079;-77
2022/07/28 09:40:11;;;;;;;2.08;1.40;;;;;;;;;;5030392;28;19921;-76
2022/07/28 09:42:54;;;;;;;1.50;1.40;;;;;;;;;;5033586;28;20116;-76
2022/07/28 09:45:26;;;;;;;1.50;1.40;;;;;;;;;;5030842;28;20064;-77
2022/07/28 09:48:11;;;;;;;3.97;1.52;;;;;;;;;;5040384;28;20072;-77
2022/07/28 09:50:38;;;;;;;4.00;1.45;;;;;;;;;;5034945;28;20041;-77
2022/07/28 09:53:24;;;;;;;3.17;1.55;;;;;;;;;;5030325;28;20128;-77
2022/07/28 09:55:54;;;;;;;4.65;1.40;;;;;;;;;;5035618;28;20594;-77
2022/07/28 09:58:20;;;;;;;1.60;1.45;;;;;;;;;;5032841;28;20442;-76
2022/07/28 10:00:46;;;;;;;1.60;1.50;;;;;;;;;;5032396;28;20114;-77
2022/07/28 10:03:23;;;;;;;2.70;1.60;;;;;;;;;;5031022;28;20095;-76
2022/07/28 10:05:49;;;;;;;1.90;1.40;;;;;;;;;;5030775;28;20064;-77
2022/07/28 10:08:15;;;;;;;2.72;1.40;;;;;;;;;;5031625;28;20041;-76
2022/07/28 10:10:41;;;;;;;3.10;1.42;;;;;;;;;;5032546;28;20048;-77
2022/07/28 10:13:07;;;;;;;1.50;1.40;;;;;;;;;;5035784;28;20099;-76
2022/07/28 10:18:18;;;;;;;2.38;1.30;;;;;;;;;;5030624;28;20045;-77
2022/07/28 10:20:44;;;;;;;2.70;1.55;;;;;;;;;;5034890;28;20045;-77
2022/07/28 10:23:11;;;;;;;2.45;1.35;;;;;;;;;;5030677;28;20048;-77
2022/07/28 10:25:39;;;;;;;1.38;1.30;;;;;;;;;;5030664;28;20052;-77
2022/07/28 10:28:05;;;;;;;3.45;1.40;;;;;;;;;;5035275;28;20045;-77
2022/07/28 10:30:39;;;;;;;1.77;1.30;;;;;;;;;;5032419;28;20484;-77
2022/07/28 10:33:08;;;;;;;2.28;1.40;;;;;;;;;;5034710;28;20041;-77
2022/07/28 10:35:35;;;;;;;1.40;1.30;;;;;;;;;;5029109;28;20053;-77
2022/07/28 10:38:28;;;;;;;2.60;1.40;;;;;;;;;;5039840;28;20045;-77
2022/07/28 10:40:55;;;;;;;2.45;1.52;;;;;;;;;;5035514;28;20061;-77
2022/07/28 10:43:22;;;;;;;1.58;1.42;;;;;;;;;;5032307;28;20049;-77
2022/07/28 10:45:49;;;;;;;2.65;1.40;;;;;;;;;;5028103;28;20053;-76
2022/07/28 10:48:15;;;;;;;3.13;1.60;;;;;;;;;;5030404;28;20061;-77
2022/07/28 10:50:41;;;;;;;2.03;1.50;;;;;;;;;;5029129;28;20055;-75
2022/07/28 10:53:10;;;;;;;1.45;1.30;;;;;;;;;;5026755;28;20056;-75
2022/07/28 10:55:48;;;;;;;1.70;1.40;;;;;;;;;;5033344;28;20128;-75
2022/07/28 10:58:29;;;;;;;2.22;1.50;;;;;;;;;;5032198;28;20172;-75
2022/07/28 11:00:55;;;;;;;2.75;1.50;;;;;;;;;;5035797;28;20049;-75
2022/07/28 11:03:38;;;;;;;2.85;1.40;;;;;;;;;;5042442;28;20123;-76
2022/07/28 11:06:23;;;;;;;3.15;1.50;;;;;;;;;;5035790;28;20057;-76
2022/07/28 11:08:51;;;;;;;2.58;1.70;;;;;;;;;;5033905;28;20089;-75
2022/07/28 11:11:37;;;;;;;1.75;1.40;;;;;;;;;;5030670;28;20114;-76
2022/07/28 11:14:22;;;;;;;2.63;1.40;;;;;;;;;;5033742;28;20401;-75
2022/07/28 11:16:48;;;;;;;1.40;1.30;;;;;;;;;;5032849;28;20045;-76
2022/07/28 11:19:17;;;;;;;1.80;1.70;;;;;;;;;;5029690;28;20063;-76
2022/07/28 11:22:02;;;;;;;1.63;1.48;;;;;;;;;;5033744;28;20562;-75
2022/07/28 11:24:48;;;;;;;3.25;2.00;;;;;;;;;;5026885;28;20141;-75
2022/07/28 11:27:14;;;;;;;2.00;1.48;;;;;;;;;;5034082;28;20041;-75
2022/07/28 11:29:46;;;;;;;1.88;1.40;;;;;;;;;;5042544;28;20086;-76
2022/07/28 11:32:12;;;;;;;2.67;1.48;;;;;;;;;;5044741;28;20051;-76
2022/07/28 11:34:58;;;;;;;2.47;1.20;;;;;;;;;;5039344;28;20041;-75
2022/07/28 11:37:24;;;;;;;1.58;1.40;;;;;;;;;;5036616;28;20175;-76
2022/07/28 11:39:50;;;;;;;2.70;1.60;;;;;;;;;;5039001;28;20128;-75
2022/07/28 11:42:25;;;;;;;1.98;1.30;;;;;;;;;;5037594;28;20049;-75
2022/07/28 11:44:51;;;;;;;1.52;1.42;;;;;;;;;;5031474;28;20132;-75
2022/07/28 11:47:18;;;;;;;1.98;1.70;;;;;;;;;;5037179;28;20041;-75
2022/07/28 11:49:45;;;;;;;2.22;1.40;;;;;;;;;;5038117;28;20049;-75
2022/07/28 11:52:16;;;;;;;2.00;1.30;;;;;;;;;;5031214;28;20482;-75
2022/07/28 11:54:42;;;;;;;1.98;1.50;;;;;;;;;;5035741;28;20432;-75
2022/07/28 11:57:10;;;;;;;1.60;1.50;;;;;;;;;;5034524;28;20040;-75
2022/07/28 11:59:46;;;;;;;3.10;1.48;;;;;;;;;;5039277;28;20773;-75
2022/07/28 12:02:16;;;;;;;1.88;1.33;;;;;;;;;;5033852;28;20440;-75
2022/07/28 12:04:43;;;;;;;3.58;1.45;;;;;;;;;;5029527;28;20037;-75
2022/07/28 12:07:09;;;;;;;1.50;1.40;;;;;;;;;;5036962;28;20095;-75
2022/07/28 12:09:36;;;;;;;3.30;1.48;;;;;;;;;;5031654;28;20087;-75
2022/07/28 12:12:02;;;;;;;3.15;1.40;;;;;;;;;;5037604;28;20136;-75
2022/07/28 12:14:29;;;;;;;2.33;1.50;;;;;;;;;;5034388;28;20041;-75
2022/07/28 12:16:55;;;;;;;1.50;1.40;;;;;;;;;;5038380;28;20052;-75
2022/07/28 12:19:22;;;;;;;2.83;1.55;;;;;;;;;;5032311;28;20331;-74
2022/07/28 12:21:53;;;;;;;2.15;1.45;;;;;;;;;;5040436;28;20055;-74
2022/07/28 12:24:29;;;;;;;2.53;1.20;;;;;;;;;;5032863;28;20060;-75
2022/07/28 12:26:56;;;;;;;1.90;1.30;;;;;;;;;;5036715;28;20048;-74
2022/07/28 12:29:23;;;;;;;1.35;1.20;;;;;;;;;;5034433;28;20053;-74
2022/07/28 12:31:53;;;;;;;1.48;1.35;;;;;;;;;;5035191;28;20052;-74
2022/07/28 12:34:19;;;;;;;3.42;1.17;;;;;;;;;;4988683;28;20145;-74
2022/07/28 12:36:45;;;;;;;1.73;1.20;;;;;;;;;;4991709;28;20038;-75
2022/07/28 12:39:11;;;;;;;1.67;1.20;;;;;;;;;;5006064;28;20054;-74
2022/07/28 12:41:37;;;;;;;1.40;1.20;;;;;;;;;;4998878;28;20057;-75
2022/07/28 12:44:04;;;;;;;1.23;1.13;;;;;;;;;;5005281;28;20754;-74
2022/07/28 12:46:31;;;;;;;4.57;1.25;;;;;;;;;;5002540;28;20035;-75
2022/07/28 12:48:58;;;;;;;1.60;1.10;;;;;;;;;;5005169;28;20101;-74
2022/07/28 12:51:31;;;;;;;1.95;1.17;;;;;;;;;;5004623;28;20103;-74
2022/07/28 12:53:58;;;;;;;1.55;1.20;;;;;;;;;;5007418;28;20044;-74
2022/07/28 12:56:24;;;;;;;1.85;1.20;;;;;;;;;;5010646;28;20045;-74
2022/07/28 12:59:03;;;;;;;1.55;1.30;;;;;;;;;;5005366;28;20058;-75
2022/07/28 13:01:48;;;;;;;1.75;1.23;;;;;;;;;;5008587;28;20049;-75
2022/07/28 13:04:14;;;;;;;1.42;1.20;;;;;;;;;;5004880;28;20068;-74
2022/07/28 13:06:40;;;;;;;2.13;1.30;;;;;;;;;;5002314;28;21518;-75
2022/07/28 13:09:07;;;;;;;2.47;1.30;;;;;;;;;;5001398;28;20478;-75
2022/07/28 13:11:33;;;;;;;6.53;1.40;;;;;;;;;;5009898;28;20150;-74
2022/07/28 13:13:59;;;;;;;1.95;1.20;;;;;;;;;;5005847;28;20560;-76
2022/07/28 13:16:27;;;;;;;2.03;1.33;;;;;;;;;;5005050;28;20397;-75
2022/07/28 13:18:54;;;;;;;1.50;1.40;;;;;;;;;;5010875;28;20042;-74
2022/07/28 13:21:56;;;;;;;2.72;1.40;;;;;;;;;;5006099;28;20418;-74
2022/07/28 13:24:22;;;;;;;1.55;1.30;;;;;;;;;;4981202;28;20039;-75
2022/07/28 13:26:48;;;;;;;1.85;1.20;;;;;;;;;;4993008;28;20054;-74
2022/07/28 13:29:14;;;;;;;2.13;1.20;;;;;;;;;;5000274;28;20050;-74
2022/07/28 13:31:40;;;;;;;1.88;1.20;;;;;;;;;;5003917;28;20049;-74
2022/07/28 13:34:08;;;;;;;1.80;1.20;;;;;;;;;;5003514;28;20050;-74
2022/07/28 13:36:36;;;;;;;1.80;1.30;;;;;;;;;;5003001;28;20038;-74
2022/07/28 13:39:02;;;;;;;2.55;1.30;;;;;;;;;;5002896;28;20073;-74
2022/07/28 13:41:29;;;;;;;2.25;1.13;;;;;;;;;;4995773;28;20045;-75
2022/07/28 13:43:57;;;;;;;1.55;1.00;;;;;;;;;;4998398;28;20426;-74
2022/07/28 13:46:23;;;;;;;1.40;1.30;;;;;;;;;;4996755;28;20050;-74
2022/07/28 13:48:49;;;;;;;1.77;1.10;;;;;;;;;;4995438;28;20046;-77
2022/07/28 13:51:15;;;;;;;1.25;1.10;;;;;;;;;;5001481;28;20406;-78
2022/07/28 13:53:41;;;;;;;1.48;1.30;;;;;;;;;;5005944;28;20055;-78
2022/07/28 13:56:08;;;;;;;2.03;1.30;;;;;;;;;;4999165;28;20049;-77
2022/07/28 13:58:34;;;;;;;2.70;1.27;;;;;;;;;;5004740;28;20125;-78
2022/07/28 14:01:00;;;;;;;1.60;1.13;;;;;;;;;;4997567;28;20107;-77
2022/07/28 14:03:27;;;;;;;1.20;1.10;;;;;;;;;;4999685;28;20481;-77